Current Conditions
Partly Cloudy
Conditions



Rainfall
0.00 (mm) - 0.00 (in)
Pressure
1020.92 (mb) - 30.15 (inHG)
Visibility

10.0 (km) - 6.2 (miles)
   Temperature
4  °C
39°F
-2  °C
Dewpoint
65  %
 Humidity
   Wind Speed
4.5  m/s
10  mph
16  km/h
9  kts
   Wind Direction
 150°
South South
East
   Airport Data
ENAL
Location Ă…lesund 10 km (6.22 mi)
Metar :ENAL 151220Z 15009KT 9999 FEW030 04/M02 Q1021
Fri 15th November 13:20 pm
   Raw Metar Info
Raw METAR is the most common format in the world for the transmission of observational weather data. It is highly standardized through the International Civil Aviation Organization (ICAO), which allows it to be understood throughout most of the world.
   API Info
Data Provided by
https://www.checkwx.com/weather/ENAL
   © Info
CSS/SVG/PHP scripts were developed by weather34.com for use in the weather34 template © 2015-2019

Guide Info provided by Metar-Wikipedia